createdAt,value
2023-03-29T00:02:35.105Z,3.00
2023-03-29T00:05:39.370Z,2.85
2023-03-29T00:08:42.466Z,2.83
2023-03-29T00:11:46.164Z,2.80
2023-03-29T00:14:49.069Z,1.70
2023-03-29T00:17:51.674Z,1.60
2023-03-29T00:20:57.533Z,1.27
2023-03-29T00:24:01.910Z,1.30
2023-03-29T00:27:08.943Z,1.40
2023-03-29T00:30:17.844Z,1.50
2023-03-29T00:33:25.652Z,1.60
2023-03-29T00:36:31.228Z,1.83
2023-03-29T00:39:45.899Z,1.70
2023-03-29T00:42:49.915Z,1.60
2023-03-29T00:45:52.781Z,1.70
2023-03-29T00:49:05.263Z,1.90
2023-03-29T00:52:10.322Z,1.92
2023-03-29T00:55:17.737Z,1.70
2023-03-29T00:58:31.063Z,1.90
2023-03-29T01:01:46.589Z,2.00
2023-03-29T01:05:01.833Z,1.87
2023-03-29T01:08:12.486Z,2.03
2023-03-29T01:11:29.192Z,1.88
2023-03-29T01:14:43.057Z,2.05
2023-03-29T01:17:53.374Z,2.10
2023-03-29T01:21:05.513Z,2.10
2023-03-29T01:24:25.959Z,2.00
2023-03-29T01:28:02.854Z,2.10
2023-03-29T01:31:34.082Z,2.30
2023-03-29T01:34:53.502Z,2.00
2023-03-29T01:38:05.838Z,1.90
2023-03-29T01:41:08.851Z,1.88
2023-03-29T01:44:50.207Z,1.77
2023-03-29T01:48:01.206Z,2.00
2023-03-29T01:51:10.065Z,1.77
2023-03-29T01:54:30.299Z,2.08
2023-03-29T01:57:36.897Z,2.35
2023-03-29T02:00:50.245Z,1.80
2023-03-29T02:04:01.485Z,2.30
2023-03-29T02:07:12.769Z,2.03
2023-03-29T02:10:18.913Z,1.97
2023-03-29T02:13:23.605Z,1.80
2023-03-29T02:16:25.853Z,1.88
2023-03-29T02:24:21.007Z,1.88
2023-03-29T02:27:27.576Z,2.10
2023-03-29T02:30:49.643Z,1.70
2023-03-29T02:34:27.599Z,1.80
2023-03-29T02:37:38.070Z,1.88
2023-03-29T02:40:45.315Z,1.63
2023-03-29T02:43:51.855Z,1.80
2023-03-29T02:46:59.159Z,1.65
2023-03-29T02:50:04.143Z,1.70
2023-03-29T02:53:16.722Z,1.55
2023-03-29T02:56:21.231Z,1.98
2023-03-29T02:59:26.846Z,1.50
2023-03-29T03:02:30.175Z,1.50
2023-03-29T03:05:34.384Z,1.57
2023-03-29T03:08:41.491Z,1.80
2023-03-29T03:11:46.212Z,2.00
2023-03-29T03:14:50.482Z,1.63
2023-03-29T03:17:54.753Z,1.70
2023-03-29T03:21:04.772Z,1.80
2023-03-29T03:24:08.126Z,1.80
2023-03-29T03:27:10.812Z,1.83
2023-03-29T03:30:14.880Z,1.60
2023-03-29T03:33:38.623Z,1.55
2023-03-29T03:37:04.703Z,1.60
2023-03-29T03:40:12.236Z,1.50
2023-03-29T03:43:16.522Z,1.40
2023-03-29T03:46:22.531Z,1.57
2023-03-29T03:49:28.627Z,1.30
2023-03-29T03:52:33.125Z,1.48
2023-03-29T03:55:39.968Z,1.20
2023-03-29T03:58:47.951Z,1.50
2023-03-29T04:01:54.006Z,1.48
2023-03-29T04:05:00.339Z,1.30
2023-03-29T04:08:10.835Z,1.40
2023-03-29T04:11:34.880Z,1.50
2023-03-29T04:14:39.567Z,1.30
2023-03-29T04:17:46.284Z,1.43
2023-03-29T04:21:11.689Z,1.30
2023-03-29T04:24:16.531Z,1.63
2023-03-29T04:27:29.137Z,1.50
2023-03-29T04:30:37.171Z,1.75
2023-03-29T04:34:05.962Z,1.45
2023-03-29T04:37:11.145Z,1.40
2023-03-29T04:40:15.492Z,1.30
2023-03-29T04:43:31.741Z,1.40
2023-03-29T04:46:47.022Z,2.42
2023-03-29T04:49:54.684Z,1.47
2023-03-29T04:53:09.573Z,1.40
2023-03-29T04:56:18.149Z,1.42
2023-03-29T04:59:39.799Z,1.50
2023-03-29T05:02:58.854Z,1.27
2023-03-29T05:06:07.680Z,1.33
2023-03-29T05:09:14.045Z,1.20
2023-03-29T05:12:32.991Z,1.73
2023-03-29T05:15:34.926Z,1.30
2023-03-29T05:18:38.193Z,1.40
2023-03-29T05:21:47.701Z,1.30
2023-03-29T05:24:56.254Z,1.10
2023-03-29T05:27:59.443Z,1.20
2023-03-29T05:31:06.971Z,1.10
2023-03-29T05:34:11.982Z,1.05
2023-03-29T05:37:21.578Z,1.50
2023-03-29T05:40:34.394Z,1.10
2023-03-29T05:43:57.322Z,1.03
2023-03-29T05:47:03.252Z,1.35
2023-03-29T05:50:09.316Z,1.27
2023-03-29T05:53:12.843Z,1.10
2023-03-29T05:56:23.706Z,1.13
2023-03-29T05:59:29.664Z,1.10
2023-03-29T06:02:35.005Z,1.02
2023-03-29T06:05:44.749Z,1.13
2023-03-29T06:08:51.056Z,1.00
2023-03-29T06:11:59.481Z,0.93
2023-03-29T06:15:13.539Z,1.10
2023-03-29T06:18:21.420Z,1.10
2023-03-29T06:21:29.700Z,1.20
2023-03-29T06:24:36.018Z,1.00
2023-03-29T06:27:49.591Z,0.90
2023-03-29T06:31:04.863Z,1.10
2023-03-29T06:34:18.722Z,1.10
2023-03-29T06:37:56.834Z,1.05
2023-03-29T06:41:11.462Z,1.00
2023-03-29T06:44:36.309Z,1.20
2023-03-29T06:47:48.148Z,1.30
2023-03-29T06:50:54.619Z,1.10
2023-03-29T06:54:01.057Z,1.15
2023-03-29T06:57:06.266Z,1.20
2023-03-29T07:00:32.028Z,1.40
2023-03-29T07:03:49.355Z,1.23
2023-03-29T07:07:03.912Z,1.90
2023-03-29T07:10:08.929Z,1.20
2023-03-29T07:13:49.035Z,1.40
2023-03-29T07:16:57.349Z,1.10
2023-03-29T07:20:18.014Z,1.47
2023-03-29T07:23:33.554Z,1.20
2023-03-29T07:26:36.216Z,1.08
2023-03-29T07:29:40.190Z,1.10
2023-03-29T07:32:49.502Z,1.00
2023-03-29T07:36:16.000Z,1.02
2023-03-29T07:39:20.406Z,1.23
2023-03-29T07:42:52.593Z,1.00
2023-03-29T07:46:05.491Z,1.15
2023-03-29T07:49:13.410Z,1.10
2023-03-29T07:52:17.576Z,0.97
2023-03-29T07:55:21.875Z,1.10
2023-03-29T07:58:57.543Z,1.15
2023-03-29T08:02:01.299Z,1.13
2023-03-29T08:05:14.079Z,1.08
2023-03-29T08:08:28.381Z,1.00
2023-03-29T08:11:38.889Z,1.02
2023-03-29T08:14:49.953Z,1.10
2023-03-29T08:18:03.089Z,1.10
2023-03-29T08:21:07.799Z,1.08
2023-03-29T08:24:20.826Z,1.00
2023-03-29T08:27:28.217Z,0.90
2023-03-29T08:30:35.915Z,0.90
2023-03-29T08:33:45.762Z,0.90
2023-03-29T08:37:18.897Z,1.10
2023-03-29T08:40:28.009Z,1.00
2023-03-29T08:44:16.007Z,1.13
2023-03-29T08:48:10.233Z,1.00
2023-03-29T08:51:41.726Z,1.10
2023-03-29T08:54:49.010Z,0.90
2023-03-29T08:58:13.328Z,0.90
2023-03-29T09:01:20.255Z,1.00
2023-03-29T09:04:37.183Z,1.00
2023-03-29T09:08:00.351Z,1.00
2023-03-29T09:11:19.121Z,1.00
2023-03-29T09:15:06.597Z,1.30
2023-03-29T09:18:29.692Z,1.20
2023-03-29T09:22:16.479Z,1.00
2023-03-29T09:26:10.210Z,1.00
2023-03-29T09:29:48.520Z,1.10
2023-03-29T09:33:27.132Z,1.47
2023-03-29T09:37:03.096Z,1.10
2023-03-29T09:40:25.605Z,1.30
2023-03-29T09:43:56.575Z,1.90
2023-03-29T09:47:30.528Z,1.63
2023-03-29T09:50:54.582Z,1.90
2023-03-29T09:54:00.710Z,1.20
2023-03-29T09:57:26.078Z,1.60
2023-03-29T10:00:29.582Z,1.50
2023-03-29T10:03:33.709Z,1.40
2023-03-29T10:06:53.799Z,1.50
2023-03-29T10:10:02.706Z,1.70
2023-03-29T10:13:13.397Z,1.40
2023-03-29T10:16:21.744Z,1.50
2023-03-29T10:19:36.908Z,1.52
2023-03-29T10:22:40.480Z,1.45
2023-03-29T10:25:43.778Z,1.30
2023-03-29T10:29:07.960Z,1.50
2023-03-29T10:32:27.116Z,1.20
2023-03-29T10:35:41.754Z,1.17
2023-03-29T10:38:45.282Z,1.40
2023-03-29T10:41:54.478Z,1.23
2023-03-29T10:45:01.755Z,1.20
2023-03-29T10:48:11.062Z,1.40
2023-03-29T10:51:17.999Z,1.40
2023-03-29T10:54:24.209Z,1.08
2023-03-29T10:58:02.876Z,1.23
2023-03-29T11:01:05.720Z,1.30
2023-03-29T11:04:21.478Z,1.10
2023-03-29T11:07:31.612Z,1.20
2023-03-29T11:10:42.697Z,1.17
2023-03-29T11:14:15.465Z,1.20
2023-03-29T11:17:42.340Z,1.23
2023-03-29T11:21:10.712Z,1.10
2023-03-29T11:24:34.201Z,1.30
2023-03-29T11:27:55.927Z,1.02
2023-03-29T11:31:16.830Z,1.13
2023-03-29T11:34:47.650Z,1.20
2023-03-29T11:38:18.008Z,1.27
2023-03-29T11:41:25.374Z,1.30
2023-03-29T11:44:36.025Z,1.20
2023-03-29T11:47:40.879Z,1.40
2023-03-29T11:51:13.372Z,1.38
2023-03-29T11:54:41.265Z,1.50
2023-03-29T11:58:04.310Z,1.53
2023-03-29T12:01:23.776Z,1.30
2023-03-29T12:04:41.935Z,1.58
2023-03-29T12:07:56.604Z,1.48
2023-03-29T12:11:09.882Z,1.70
2023-03-29T12:14:30.434Z,1.45
2023-03-29T12:17:47.735Z,1.60
2023-03-29T12:20:58.944Z,1.50
2023-03-29T12:24:05.126Z,1.50
2023-03-29T12:27:28.376Z,1.98
2023-03-29T12:31:00.375Z,2.00
2023-03-29T12:34:35.036Z,1.50
2023-03-29T12:42:19.382Z,1.50
2023-03-29T12:45:53.816Z,1.70
2023-03-29T12:49:06.757Z,1.73
2023-03-29T12:52:27.856Z,2.00
2023-03-29T12:55:49.729Z,1.58
2023-03-29T12:59:13.742Z,1.50
2023-03-29T13:02:35.046Z,2.00
2023-03-29T13:05:38.929Z,1.40
2023-03-29T13:08:43.299Z,1.42
2023-03-29T13:11:53.385Z,1.63
2023-03-29T13:15:03.229Z,1.67
2023-03-29T13:18:22.601Z,1.60
2023-03-29T13:21:51.399Z,1.70
2023-03-29T13:25:19.794Z,1.50
2023-03-29T13:28:48.276Z,1.60
2023-03-29T13:32:23.233Z,1.42
2023-03-29T13:35:55.673Z,1.40
2023-03-29T13:39:05.621Z,1.40
2023-03-29T13:42:23.561Z,1.40
2023-03-29T13:45:32.597Z,1.42
2023-03-29T13:48:41.354Z,1.83
2023-03-29T13:52:17.610Z,1.70
2023-03-29T13:55:35.541Z,1.40
2023-03-29T13:58:52.655Z,1.50
2023-03-29T14:02:01.232Z,1.40
2023-03-29T14:05:11.744Z,1.40
2023-03-29T14:08:26.567Z,1.30
2023-03-29T14:11:30.047Z,1.40
2023-03-29T14:14:33.203Z,1.25
2023-03-29T14:17:37.097Z,1.43
2023-03-29T14:20:46.519Z,9.23
2023-03-29T14:23:58.522Z,6.10
2023-03-29T14:27:02.869Z,3.58
2023-03-29T14:30:21.926Z,1.80
2023-03-29T14:33:38.174Z,1.83
2023-03-29T14:36:46.917Z,2.72
2023-03-29T14:39:51.977Z,1.60
2023-03-29T14:42:55.213Z,2.10
2023-03-29T14:46:01.952Z,1.60
2023-03-29T14:49:08.293Z,1.67
2023-03-29T14:52:16.076Z,1.60
2023-03-29T14:55:26.133Z,2.10
2023-03-29T14:58:37.401Z,1.80
2023-03-29T15:01:44.708Z,1.80
2023-03-29T15:04:56.926Z,1.65
2023-03-29T15:08:02.441Z,1.73
2023-03-29T15:11:18.663Z,3.00
2023-03-29T15:14:38.228Z,1.70
2023-03-29T15:17:52.377Z,1.60
2023-03-29T15:20:56.597Z,1.90
2023-03-29T15:24:07.046Z,1.70
2023-03-29T15:27:23.914Z,1.55
2023-03-29T15:30:36.628Z,1.38
2023-03-29T15:33:41.014Z,1.50
2023-03-29T15:36:47.290Z,1.20
2023-03-29T15:39:48.909Z,1.50
2023-03-29T15:42:51.832Z,1.50
2023-03-29T15:45:53.480Z,1.80
2023-03-29T15:48:55.061Z,2.10
2023-03-29T15:51:56.674Z,1.65
2023-03-29T15:54:58.399Z,1.77
2023-03-29T15:58:01.150Z,1.60
2023-03-29T16:01:23.383Z,1.65
2023-03-29T16:04:26.040Z,1.50
2023-03-29T16:07:27.957Z,2.70
2023-03-29T16:10:29.612Z,2.10
2023-03-29T16:13:31.228Z,2.50
2023-03-29T16:16:32.770Z,2.03
2023-03-29T16:19:34.449Z,2.08
2023-03-29T16:22:37.789Z,2.38
2023-03-29T16:25:40.421Z,2.60
2023-03-29T16:28:42.505Z,1.70
2023-03-29T16:31:49.983Z,2.00
2023-03-29T16:34:53.602Z,2.05
2023-03-29T16:37:55.348Z,2.60
2023-03-29T16:40:57.254Z,2.40
2023-03-29T16:44:00.208Z,2.63
2023-03-29T16:47:01.943Z,3.30
2023-03-29T16:50:04.158Z,4.45
2023-03-29T16:53:06.102Z,4.47
2023-03-29T16:56:07.876Z,2.83
2023-03-29T16:59:09.845Z,2.72
2023-03-29T17:02:11.359Z,2.75
2023-03-29T17:05:13.264Z,4.03
2023-03-29T17:08:16.453Z,4.75
2023-03-29T17:11:23.221Z,4.05
2023-03-29T17:14:25.512Z,4.65
2023-03-29T17:17:27.349Z,4.45
2023-03-29T17:20:34.384Z,5.22
2023-03-29T17:23:36.141Z,5.13
2023-03-29T17:26:38.178Z,4.82
2023-03-29T17:29:40.186Z,5.78
2023-03-29T17:32:42.235Z,6.03
2023-03-29T17:35:44.675Z,5.77
2023-03-29T17:38:49.531Z,5.30
2023-03-29T17:41:51.183Z,6.20
2023-03-29T17:44:55.111Z,4.63
2023-03-29T17:47:56.789Z,5.00
2023-03-29T17:50:58.618Z,5.10
2023-03-29T17:54:00.721Z,4.80
2023-03-29T17:57:02.692Z,4.10
2023-03-29T18:00:06.301Z,3.80
2023-03-29T18:03:08.879Z,5.18
2023-03-29T18:06:11.653Z,4.80
2023-03-29T18:09:13.302Z,6.25
2023-03-29T18:12:14.903Z,6.20
2023-03-29T18:15:17.019Z,6.25
2023-03-29T18:18:19.488Z,6.40
2023-03-29T18:21:22.141Z,6.03
2023-03-29T18:24:24.183Z,6.33
2023-03-29T18:27:26.250Z,5.60
2023-03-29T18:30:27.877Z,8.85
2023-03-29T18:33:35.263Z,7.35
2023-03-29T18:36:37.180Z,6.87
2023-03-29T18:39:38.736Z,7.45
2023-03-29T18:42:41.417Z,7.65
2023-03-29T18:45:44.396Z,6.63
2023-03-29T18:48:46.329Z,6.43
2023-03-29T18:51:49.569Z,7.53
2023-03-29T18:54:51.417Z,6.80
2023-03-29T18:57:53.044Z,6.30
2023-03-29T19:00:54.958Z,7.13
2023-03-29T19:03:57.432Z,6.82
2023-03-29T19:07:01.350Z,8.02
2023-03-29T19:10:04.645Z,7.82
2023-03-29T19:13:07.940Z,7.05
2023-03-29T19:16:10.418Z,7.38
2023-03-29T19:19:12.856Z,7.93
2023-03-29T19:22:14.690Z,7.30
2023-03-29T19:25:16.786Z,7.43
2023-03-29T19:28:20.629Z,6.85
2023-03-29T19:31:22.509Z,7.00
2023-03-29T19:34:24.589Z,7.27
2023-03-29T19:37:26.504Z,6.55
2023-03-29T19:40:28.226Z,6.68
2023-03-29T19:43:29.813Z,6.57
2023-03-29T19:46:32.112Z,5.60
2023-03-29T19:49:36.614Z,5.00
2023-03-29T19:52:38.372Z,4.85
2023-03-29T19:55:42.573Z,4.57
2023-03-29T19:58:44.290Z,4.30
2023-03-29T20:01:51.056Z,4.00
2023-03-29T20:04:53.012Z,3.85
2023-03-29T20:07:57.268Z,4.03
2023-03-29T20:11:02.336Z,3.78
2023-03-29T20:14:05.520Z,4.25
2023-03-29T20:17:08.350Z,3.70
2023-03-29T20:20:12.191Z,3.60
2023-03-29T20:23:17.698Z,3.50
2023-03-29T20:26:19.805Z,4.15
2023-03-29T20:29:24.071Z,3.83
2023-03-29T20:32:30.939Z,3.85
2023-03-29T20:35:35.464Z,4.88
2023-03-29T20:38:38.412Z,3.85
2023-03-29T20:41:42.051Z,4.00
2023-03-29T20:44:51.159Z,4.00
2023-03-29T20:48:02.978Z,4.32
2023-03-29T20:51:10.978Z,4.57
2023-03-29T20:54:14.126Z,4.50
2023-03-29T20:57:23.671Z,4.35
2023-03-29T21:00:32.188Z,4.32
2023-03-29T21:03:36.935Z,4.20
2023-03-29T21:06:43.101Z,4.30
2023-03-29T21:09:45.114Z,3.78
2023-03-29T21:12:50.107Z,4.23
2023-03-29T21:15:56.810Z,4.07
2023-03-29T21:18:58.858Z,4.15
2023-03-29T21:22:08.583Z,3.80
2023-03-29T21:25:15.733Z,3.47
2023-03-29T21:28:17.387Z,3.50
2023-03-29T21:31:26.091Z,2.75
2023-03-29T21:34:30.064Z,2.13
2023-03-29T21:37:34.699Z,2.45
2023-03-29T21:40:36.920Z,2.20
2023-03-29T21:43:40.451Z,2.20
2023-03-29T21:46:43.934Z,2.47
2023-03-29T21:49:46.599Z,2.20
2023-03-29T21:52:49.136Z,2.55
2023-03-29T21:55:52.095Z,2.10
2023-03-29T21:58:56.528Z,2.00
2023-03-29T22:01:58.474Z,2.42
2023-03-29T22:05:02.058Z,2.20
2023-03-29T22:08:10.923Z,2.22
2023-03-29T22:11:17.860Z,2.40
2023-03-29T22:14:19.509Z,2.50
2023-03-29T22:17:27.109Z,1.93
2023-03-29T22:20:36.576Z,2.13
2023-03-29T22:23:42.532Z,2.50
2023-03-29T22:26:50.198Z,2.15
2023-03-29T22:29:52.375Z,2.00
2023-03-29T22:32:55.615Z,1.80
2023-03-29T22:35:58.538Z,2.20
2023-03-29T22:39:02.891Z,2.03
2023-03-29T22:42:05.383Z,2.28
2023-03-29T22:45:12.186Z,1.75
2023-03-29T22:48:23.122Z,2.10
2023-03-29T22:51:27.507Z,2.17
2023-03-29T22:54:31.244Z,2.15
2023-03-29T22:57:35.937Z,1.90
2023-03-29T23:00:37.565Z,2.20
2023-03-29T23:03:40.626Z,2.10
2023-03-29T23:06:43.049Z,2.25
2023-03-29T23:09:47.882Z,2.10
2023-03-29T23:12:50.007Z,1.77
2023-03-29T23:15:55.205Z,2.00
2023-03-29T23:19:02.546Z,2.30
2023-03-29T23:22:14.445Z,1.90
2023-03-29T23:25:17.530Z,2.13
2023-03-29T23:28:24.888Z,2.17
2023-03-29T23:31:27.634Z,1.98
2023-03-29T23:34:36.166Z,1.60
2023-03-29T23:37:39.468Z,2.42
2023-03-29T23:40:46.433Z,2.00
2023-03-29T23:43:56.768Z,1.90
2023-03-29T23:47:00.226Z,2.10
2023-03-29T23:50:07.692Z,1.70
2023-03-29T23:53:10.601Z,1.95
2023-03-29T23:56:16.528Z,2.10
2023-03-29T23:59:19.808Z,2.22
